sensor_id;sensor_type;location;lat;lon;timestamp;P1;durP1;ratioP1;P2;durP2;ratioP2
3967;SDS011;9221;42.646;23.380;2023-04-06T00:00:13;10.40;;;4.10;;
3967;SDS011;9221;42.646;23.380;2023-04-06T00:02:39;9.43;;;3.50;;
3967;SDS011;9221;42.646;23.380;2023-04-06T00:05:05;7.83;;;3.17;;
3967;SDS011;9221;42.646;23.380;2023-04-06T00:07:31;10.33;;;3.67;;
3967;SDS011;9221;42.646;23.380;2023-04-06T00:09:58;9.03;;;4.37;;
3967;SDS011;9221;42.646;23.380;2023-04-06T00:12:23;7.97;;;3.00;;
3967;SDS011;9221;42.646;23.380;2023-04-06T00:14:49;8.13;;;3.93;;
3967;SDS011;9221;42.646;23.380;2023-04-06T00:17:14;14.87;;;3.97;;
3967;SDS011;9221;42.646;23.380;2023-04-06T00:19:40;12.00;;;4.10;;
3967;SDS011;9221;42.646;23.380;2023-04-06T00:22:05;8.17;;;3.80;;
3967;SDS011;9221;42.646;23.380;2023-04-06T00:24:31;13.63;;;4.83;;
3967;SDS011;9221;42.646;23.380;2023-04-06T00:26:56;9.00;;;3.23;;
3967;SDS011;9221;42.646;23.380;2023-04-06T00:29:22;9.40;;;4.33;;
3967;SDS011;9221;42.646;23.380;2023-04-06T00:31:47;13.00;;;3.93;;
3967;SDS011;9221;42.646;23.380;2023-04-06T00:34:12;8.27;;;4.37;;
3967;SDS011;9221;42.646;23.380;2023-04-06T00:36:39;11.23;;;4.40;;
3967;SDS011;9221;42.646;23.380;2023-04-06T00:39:05;7.50;;;3.87;;
3967;SDS011;9221;42.646;23.380;2023-04-06T00:41:31;8.00;;;3.00;;
3967;SDS011;9221;42.646;23.380;2023-04-06T00:43:56;11.17;;;3.77;;
3967;SDS011;9221;42.646;23.380;2023-04-06T00:46:22;7.53;;;3.70;;
3967;SDS011;9221;42.646;23.380;2023-04-06T00:48:47;11.70;;;3.80;;
3967;SDS011;9221;42.646;23.380;2023-04-06T00:51:13;14.80;;;5.07;;
3967;SDS011;9221;42.646;23.380;2023-04-06T00:53:38;8.63;;;3.60;;
3967;SDS011;9221;42.646;23.380;2023-04-06T00:56:04;8.03;;;4.23;;
3967;SDS011;9221;42.646;23.380;2023-04-06T00:58:30;9.47;;;4.20;;
3967;SDS011;9221;42.646;23.380;2023-04-06T01:00:55;14.70;;;3.80;;
3967;SDS011;9221;42.646;23.380;2023-04-06T01:03:21;8.23;;;3.60;;
3967;SDS011;9221;42.646;23.380;2023-04-06T01:05:46;9.87;;;3.77;;
3967;SDS011;9221;42.646;23.380;2023-04-06T01:08:11;13.40;;;4.20;;
3967;SDS011;9221;42.646;23.380;2023-04-06T01:10:37;7.93;;;3.70;;
3967;SDS011;9221;42.646;23.380;2023-04-06T01:13:02;12.20;;;4.13;;
3967;SDS011;9221;42.646;23.380;2023-04-06T01:15:28;7.03;;;3.53;;
3967;SDS011;9221;42.646;23.380;2023-04-06T01:17:54;8.30;;;3.60;;
3967;SDS011;9221;42.646;23.380;2023-04-06T01:20:19;11.60;;;4.30;;
3967;SDS011;9221;42.646;23.380;2023-04-06T01:22:45;6.57;;;3.13;;
3967;SDS011;9221;42.646;23.380;2023-04-06T01:25:10;8.53;;;3.83;;
3967;SDS011;9221;42.646;23.380;2023-04-06T01:27:36;11.60;;;4.30;;
3967;SDS011;9221;42.646;23.380;2023-04-06T01:30:01;11.10;;;4.33;;
3967;SDS011;9221;42.646;23.380;2023-04-06T01:32:27;5.80;;;3.10;;
3967;SDS011;9221;42.646;23.380;2023-04-06T01:34:53;11.33;;;3.37;;
3967;SDS011;9221;42.646;23.380;2023-04-06T01:37:19;8.37;;;3.40;;
3967;SDS011;9221;42.646;23.380;2023-04-06T01:39:45;6.90;;;3.27;;
3967;SDS011;9221;42.646;23.380;2023-04-06T01:42:11;12.97;;;4.40;;
3967;SDS011;9221;42.646;23.380;2023-04-06T01:44:36;6.23;;;2.83;;
3967;SDS011;9221;42.646;23.380;2023-04-06T01:47:02;14.43;;;3.60;;
3967;SDS011;9221;42.646;23.380;2023-04-06T01:49:27;8.43;;;3.80;;
3967;SDS011;9221;42.646;23.380;2023-04-06T01:51:53;6.03;;;2.90;;
3967;SDS011;9221;42.646;23.380;2023-04-06T01:54:19;9.57;;;4.10;;
3967;SDS011;9221;42.646;23.380;2023-04-06T01:56:45;10.60;;;3.17;;
3967;SDS011;9221;42.646;23.380;2023-04-06T01:59:10;7.30;;;3.30;;
3967;SDS011;9221;42.646;23.380;2023-04-06T02:01:36;10.70;;;4.07;;
3967;SDS011;9221;42.646;23.380;2023-04-06T02:04:01;8.30;;;3.87;;
3967;SDS011;9221;42.646;23.380;2023-04-06T02:06:26;9.50;;;3.00;;
3967;SDS011;9221;42.646;23.380;2023-04-06T02:08:52;7.97;;;3.97;;
3967;SDS011;9221;42.646;23.380;2023-04-06T02:11:17;13.10;;;5.00;;
3967;SDS011;9221;42.646;23.380;2023-04-06T02:13:43;8.43;;;3.97;;
3967;SDS011;9221;42.646;23.380;2023-04-06T02:16:08;14.73;;;4.20;;
3967;SDS011;9221;42.646;23.380;2023-04-06T02:18:34;10.30;;;3.53;;
3967;SDS011;9221;42.646;23.380;2023-04-06T02:20:59;8.00;;;2.97;;
3967;SDS011;9221;42.646;23.380;2023-04-06T02:23:25;9.27;;;3.23;;
3967;SDS011;9221;42.646;23.380;2023-04-06T02:25:51;13.90;;;4.27;;
3967;SDS011;9221;42.646;23.380;2023-04-06T02:28:17;9.90;;;4.30;;
3967;SDS011;9221;42.646;23.380;2023-04-06T02:30:42;6.80;;;3.40;;
3967;SDS011;9221;42.646;23.380;2023-04-06T02:33:08;6.63;;;2.93;;
3967;SDS011;9221;42.646;23.380;2023-04-06T02:35:33;8.07;;;3.50;;
3967;SDS011;9221;42.646;23.380;2023-04-06T02:37:58;8.00;;;3.30;;
3967;SDS011;9221;42.646;23.380;2023-04-06T02:40:24;8.90;;;3.70;;
3967;SDS011;9221;42.646;23.380;2023-04-06T02:42:49;8.53;;;3.80;;
3967;SDS011;9221;42.646;23.380;2023-04-06T02:45:15;10.17;;;4.20;;
3967;SDS011;9221;42.646;23.380;2023-04-06T02:47:41;10.47;;;3.57;;
3967;SDS011;9221;42.646;23.380;2023-04-06T02:50:07;9.93;;;3.80;;
3967;SDS011;9221;42.646;23.380;2023-04-06T02:52:32;8.00;;;3.03;;
3967;SDS011;9221;42.646;23.380;2023-04-06T02:54:58;6.37;;;2.60;;
3967;SDS011;9221;42.646;23.380;2023-04-06T02:57:23;6.53;;;2.63;;
3967;SDS011;9221;42.646;23.380;2023-04-06T02:59:48;9.23;;;4.10;;
3967;SDS011;9221;42.646;23.380;2023-04-06T03:02:14;8.83;;;3.20;;
3967;SDS011;9221;42.646;23.380;2023-04-06T03:04:39;11.87;;;4.00;;
3967;SDS011;9221;42.646;23.380;2023-04-06T03:07:05;6.90;;;3.50;;
3967;SDS011;9221;42.646;23.380;2023-04-06T03:09:30;10.33;;;3.23;;
3967;SDS011;9221;42.646;23.380;2023-04-06T03:11:56;8.63;;;3.70;;
3967;SDS011;9221;42.646;23.380;2023-04-06T03:14:21;9.47;;;4.23;;
3967;SDS011;9221;42.646;23.380;2023-04-06T03:16:47;11.20;;;3.80;;
3967;SDS011;9221;42.646;23.380;2023-04-06T03:19:13;7.73;;;3.47;;
3967;SDS011;9221;42.646;23.380;2023-04-06T03:21:39;9.20;;;3.80;;
3967;SDS011;9221;42.646;23.380;2023-04-06T03:24:05;7.83;;;3.63;;
3967;SDS011;9221;42.646;23.380;2023-04-06T03:26:30;9.07;;;3.87;;
3967;SDS011;9221;42.646;23.380;2023-04-06T03:28:56;16.07;;;3.90;;
3967;SDS011;9221;42.646;23.380;2023-04-06T03:31:21;10.37;;;3.97;;
3967;SDS011;9221;42.646;23.380;2023-04-06T03:33:46;9.20;;;2.93;;
3967;SDS011;9221;42.646;23.380;2023-04-06T03:36:12;9.00;;;3.70;;
3967;SDS011;9221;42.646;23.380;2023-04-06T03:38:37;7.90;;;3.50;;
3967;SDS011;9221;42.646;23.380;2023-04-06T03:41:03;11.73;;;3.50;;
3967;SDS011;9221;42.646;23.380;2023-04-06T03:43:28;9.03;;;4.10;;
3967;SDS011;9221;42.646;23.380;2023-04-06T03:45:54;8.43;;;3.37;;
3967;SDS011;9221;42.646;23.380;2023-04-06T03:48:19;8.20;;;3.80;;
3967;SDS011;9221;42.646;23.380;2023-04-06T03:50:45;8.90;;;3.63;;
3967;SDS011;9221;42.646;23.380;2023-04-06T03:53:10;9.20;;;4.13;;
3967;SDS011;9221;42.646;23.380;2023-04-06T03:55:36;8.73;;;3.80;;
3967;SDS011;9221;42.646;23.380;2023-04-06T03:58:01;8.47;;;3.80;;
3967;SDS011;9221;42.646;23.380;2023-04-06T04:00:27;8.43;;;3.10;;
3967;SDS011;9221;42.646;23.380;2023-04-06T04:02:52;13.30;;;3.43;;
3967;SDS011;9221;42.646;23.380;2023-04-06T04:05:18;7.30;;;3.50;;
3967;SDS011;9221;42.646;23.380;2023-04-06T04:07:43;8.93;;;3.50;;
3967;SDS011;9221;42.646;23.380;2023-04-06T04:10:08;10.00;;;4.00;;
3967;SDS011;9221;42.646;23.380;2023-04-06T04:12:34;9.23;;;4.00;;
3967;SDS011;9221;42.646;23.380;2023-04-06T04:15:00;9.80;;;3.60;;
3967;SDS011;9221;42.646;23.380;2023-04-06T04:17:25;11.37;;;3.33;;
3967;SDS011;9221;42.646;23.380;2023-04-06T04:19:51;7.50;;;3.63;;
3967;SDS011;9221;42.646;23.380;2023-04-06T04:22:16;7.60;;;3.47;;
3967;SDS011;9221;42.646;23.380;2023-04-06T04:24:41;10.83;;;3.40;;
3967;SDS011;9221;42.646;23.380;2023-04-06T04:27:07;8.20;;;3.30;;
3967;SDS011;9221;42.646;23.380;2023-04-06T04:29:32;10.83;;;4.03;;
3967;SDS011;9221;42.646;23.380;2023-04-06T04:31:57;7.57;;;3.60;;
3967;SDS011;9221;42.646;23.380;2023-04-06T04:34:23;8.40;;;3.17;;
3967;SDS011;9221;42.646;23.380;2023-04-06T04:36:51;16.60;;;4.20;;
3967;SDS011;9221;42.646;23.380;2023-04-06T04:39:17;7.50;;;2.70;;
3967;SDS011;9221;42.646;23.380;2023-04-06T04:41:42;7.93;;;3.43;;
3967;SDS011;9221;42.646;23.380;2023-04-06T04:44:08;14.30;;;4.60;;
3967;SDS011;9221;42.646;23.380;2023-04-06T04:46:33;8.97;;;4.00;;
3967;SDS011;9221;42.646;23.380;2023-04-06T04:48:59;9.50;;;3.33;;
3967;SDS011;9221;42.646;23.380;2023-04-06T04:51:24;13.23;;;4.53;;
3967;SDS011;9221;42.646;23.380;2023-04-06T04:53:50;12.37;;;4.50;;
3967;SDS011;9221;42.646;23.380;2023-04-06T04:56:15;18.47;;;4.90;;
3967;SDS011;9221;42.646;23.380;2023-04-06T04:58:41;11.13;;;4.00;;
3967;SDS011;9221;42.646;23.380;2023-04-06T05:01:06;9.70;;;3.03;;
3967;SDS011;9221;42.646;23.380;2023-04-06T05:03:32;13.73;;;4.70;;
3967;SDS011;9221;42.646;23.380;2023-04-06T05:05:58;18.07;;;4.90;;
3967;SDS011;9221;42.646;23.380;2023-04-06T05:08:23;12.50;;;5.03;;
3967;SDS011;9221;42.646;23.380;2023-04-06T05:10:49;11.07;;;4.00;;
3967;SDS011;9221;42.646;23.380;2023-04-06T05:13:14;12.93;;;4.23;;
3967;SDS011;9221;42.646;23.380;2023-04-06T05:15:40;9.37;;;4.20;;
3967;SDS011;9221;42.646;23.380;2023-04-06T05:18:06;14.07;;;4.23;;
3967;SDS011;9221;42.646;23.380;2023-04-06T05:20:33;11.17;;;3.50;;
3967;SDS011;9221;42.646;23.380;2023-04-06T05:22:59;11.47;;;4.60;;
3967;SDS011;9221;42.646;23.380;2023-04-06T05:25:25;13.57;;;4.03;;
3967;SDS011;9221;42.646;23.380;2023-04-06T05:27:50;10.63;;;4.67;;
3967;SDS011;9221;42.646;23.380;2023-04-06T05:30:16;14.20;;;4.20;;
3967;SDS011;9221;42.646;23.380;2023-04-06T05:32:41;11.30;;;4.77;;
3967;SDS011;9221;42.646;23.380;2023-04-06T05:35:09;12.77;;;5.20;;
3967;SDS011;9221;42.646;23.380;2023-04-06T05:37:35;12.47;;;4.80;;
3967;SDS011;9221;42.646;23.380;2023-04-06T05:40:00;12.37;;;5.30;;
3967;SDS011;9221;42.646;23.380;2023-04-06T05:42:26;15.30;;;4.70;;
3967;SDS011;9221;42.646;23.380;2023-04-06T05:44:52;13.80;;;4.67;;
3967;SDS011;9221;42.646;23.380;2023-04-06T05:47:17;13.93;;;5.60;;
3967;SDS011;9221;42.646;23.380;2023-04-06T05:49:43;11.17;;;4.70;;
3967;SDS011;9221;42.646;23.380;2023-04-06T05:52:08;12.23;;;5.10;;
3967;SDS011;9221;42.646;23.380;2023-04-06T05:54:35;12.33;;;5.23;;
3967;SDS011;9221;42.646;23.380;2023-04-06T05:57:02;10.50;;;4.43;;
3967;SDS011;9221;42.646;23.380;2023-04-06T05:59:29;15.80;;;6.03;;
3967;SDS011;9221;42.646;23.380;2023-04-06T06:01:55;14.37;;;5.33;;
3967;SDS011;9221;42.646;23.380;2023-04-06T06:04:20;12.80;;;5.27;;
3967;SDS011;9221;42.646;23.380;2023-04-06T06:06:46;17.77;;;5.80;;
3967;SDS011;9221;42.646;23.380;2023-04-06T06:09:11;16.53;;;5.13;;
3967;SDS011;9221;42.646;23.380;2023-04-06T06:11:37;15.83;;;5.73;;
3967;SDS011;9221;42.646;23.380;2023-04-06T06:14:02;14.53;;;5.53;;
3967;SDS011;9221;42.646;23.380;2023-04-06T06:16:28;10.90;;;4.40;;
3967;SDS011;9221;42.646;23.380;2023-04-06T06:18:53;13.93;;;4.90;;
3967;SDS011;9221;42.646;23.380;2023-04-06T06:21:19;16.60;;;6.30;;
3967;SDS011;9221;42.646;23.380;2023-04-06T06:23:44;19.77;;;5.30;;
3967;SDS011;9221;42.646;23.380;2023-04-06T06:26:12;11.77;;;5.20;;
3967;SDS011;9221;42.646;23.380;2023-04-06T06:28:37;11.50;;;4.57;;
3967;SDS011;9221;42.646;23.380;2023-04-06T06:31:03;21.73;;;6.37;;
3967;SDS011;9221;42.646;23.380;2023-04-06T06:33:28;16.10;;;6.60;;
3967;SDS011;9221;42.646;23.380;2023-04-06T06:35:53;25.03;;;7.43;;
3967;SDS011;9221;42.646;23.380;2023-04-06T06:38:19;13.83;;;5.77;;
3967;SDS011;9221;42.646;23.380;2023-04-06T06:40:45;10.90;;;4.93;;
3967;SDS011;9221;42.646;23.380;2023-04-06T06:43:11;13.00;;;5.13;;
3967;SDS011;9221;42.646;23.380;2023-04-06T06:45:36;15.77;;;6.00;;
3967;SDS011;9221;42.646;23.380;2023-04-06T06:48:02;22.27;;;6.23;;
3967;SDS011;9221;42.646;23.380;2023-04-06T06:50:27;14.20;;;6.50;;
3967;SDS011;9221;42.646;23.380;2023-04-06T06:52:53;14.37;;;4.97;;
3967;SDS011;9221;42.646;23.380;2023-04-06T06:55:18;11.40;;;4.67;;
3967;SDS011;9221;42.646;23.380;2023-04-06T06:57:44;17.83;;;6.00;;
3967;SDS011;9221;42.646;23.380;2023-04-06T07:00:11;15.73;;;6.40;;
3967;SDS011;9221;42.646;23.380;2023-04-06T07:02:38;19.43;;;7.17;;
3967;SDS011;9221;42.646;23.380;2023-04-06T07:05:03;19.13;;;6.10;;
3967;SDS011;9221;42.646;23.380;2023-04-06T07:07:30;19.87;;;6.10;;
3967;SDS011;9221;42.646;23.380;2023-04-06T07:09:56;17.83;;;5.90;;
3967;SDS011;9221;42.646;23.380;2023-04-06T07:12:22;16.77;;;6.73;;
3967;SDS011;9221;42.646;23.380;2023-04-06T07:14:47;12.10;;;4.33;;
3967;SDS011;9221;42.646;23.380;2023-04-06T07:17:12;15.50;;;6.40;;
3967;SDS011;9221;42.646;23.380;2023-04-06T07:19:57;18.30;;;6.77;;
3967;SDS011;9221;42.646;23.380;2023-04-06T07:22:22;22.53;;;6.73;;
3967;SDS011;9221;42.646;23.380;2023-04-06T07:24:47;25.03;;;6.10;;
3967;SDS011;9221;42.646;23.380;2023-04-06T07:27:13;16.83;;;5.83;;
3967;SDS011;9221;42.646;23.380;2023-04-06T07:29:38;12.60;;;4.60;;
3967;SDS011;9221;42.646;23.380;2023-04-06T07:32:04;11.40;;;5.30;;
3967;SDS011;9221;42.646;23.380;2023-04-06T07:34:29;15.60;;;5.53;;
3967;SDS011;9221;42.646;23.380;2023-04-06T07:36:55;15.37;;;5.60;;
3967;SDS011;9221;42.646;23.380;2023-04-06T07:39:21;15.30;;;5.47;;
3967;SDS011;9221;42.646;23.380;2023-04-06T07:41:47;15.60;;;5.77;;
3967;SDS011;9221;42.646;23.380;2023-04-06T07:44:12;16.30;;;6.10;;
3967;SDS011;9221;42.646;23.380;2023-04-06T07:46:37;10.70;;;5.00;;
3967;SDS011;9221;42.646;23.380;2023-04-06T07:49:03;9.40;;;4.23;;
3967;SDS011;9221;42.646;23.380;2023-04-06T07:51:28;12.77;;;4.77;;
3967;SDS011;9221;42.646;23.380;2023-04-06T07:53:54;17.13;;;5.33;;
3967;SDS011;9221;42.646;23.380;2023-04-06T07:56:20;18.70;;;5.33;;
3967;SDS011;9221;42.646;23.380;2023-04-06T07:58:46;18.10;;;6.10;;
3967;SDS011;9221;42.646;23.380;2023-04-06T08:01:12;14.00;;;5.93;;
3967;SDS011;9221;42.646;23.380;2023-04-06T08:03:37;11.10;;;4.93;;
3967;SDS011;9221;42.646;23.380;2023-04-06T08:06:03;13.73;;;6.00;;
3967;SDS011;9221;42.646;23.380;2023-04-06T08:08:29;13.13;;;5.20;;
3967;SDS011;9221;42.646;23.380;2023-04-06T08:10:55;14.37;;;5.50;;
3967;SDS011;9221;42.646;23.380;2023-04-06T08:13:21;12.73;;;5.27;;
3967;SDS011;9221;42.646;23.380;2023-04-06T08:15:46;15.27;;;6.50;;
3967;SDS011;9221;42.646;23.380;2023-04-06T08:18:12;10.97;;;5.13;;
3967;SDS011;9221;42.646;23.380;2023-04-06T08:20:38;16.70;;;7.10;;
3967;SDS011;9221;42.646;23.380;2023-04-06T08:23:04;12.40;;;5.30;;
3967;SDS011;9221;42.646;23.380;2023-04-06T08:25:29;13.73;;;5.70;;
3967;SDS011;9221;42.646;23.380;2023-04-06T08:27:55;12.50;;;5.13;;
3967;SDS011;9221;42.646;23.380;2023-04-06T08:30:21;11.33;;;5.07;;
3967;SDS011;9221;42.646;23.380;2023-04-06T08:32:46;11.60;;;4.80;;
3967;SDS011;9221;42.646;23.380;2023-04-06T08:35:12;12.63;;;4.90;;
3967;SDS011;9221;42.646;23.380;2023-04-06T08:37:37;15.30;;;6.33;;
3967;SDS011;9221;42.646;23.380;2023-04-06T08:40:03;13.47;;;5.63;;
3967;SDS011;9221;42.646;23.380;2023-04-06T08:42:31;10.97;;;5.63;;
3967;SDS011;9221;42.646;23.380;2023-04-06T08:44:57;13.37;;;5.30;;
3967;SDS011;9221;42.646;23.380;2023-04-06T08:47:24;10.10;;;5.20;;
3967;SDS011;9221;42.646;23.380;2023-04-06T08:49:49;11.67;;;4.97;;
3967;SDS011;9221;42.646;23.380;2023-04-06T08:52:16;7.43;;;4.10;;
3967;SDS011;9221;42.646;23.380;2023-04-06T08:54:43;9.13;;;3.97;;
3967;SDS011;9221;42.646;23.380;2023-04-06T08:57:08;9.30;;;4.30;;
3967;SDS011;9221;42.646;23.380;2023-04-06T08:59:34;9.40;;;4.20;;
3967;SDS011;9221;42.646;23.380;2023-04-06T09:02:02;10.80;;;5.20;;
3967;SDS011;9221;42.646;23.380;2023-04-06T09:04:29;8.53;;;3.43;;
3967;SDS011;9221;42.646;23.380;2023-04-06T09:06:54;10.97;;;4.70;;
3967;SDS011;9221;42.646;23.380;2023-04-06T09:09:20;8.73;;;4.70;;
3967;SDS011;9221;42.646;23.380;2023-04-06T09:11:46;18.50;;;4.90;;
3967;SDS011;9221;42.646;23.380;2023-04-06T09:14:13;7.37;;;3.63;;
3967;SDS011;9221;42.646;23.380;2023-04-06T09:16:41;11.00;;;4.57;;
3967;SDS011;9221;42.646;23.380;2023-04-06T09:19:07;10.07;;;4.63;;
3967;SDS011;9221;42.646;23.380;2023-04-06T09:21:33;12.10;;;4.83;;
3967;SDS011;9221;42.646;23.380;2023-04-06T09:23:59;14.70;;;5.10;;
3967;SDS011;9221;42.646;23.380;2023-04-06T09:26:26;9.03;;;5.07;;
3967;SDS011;9221;42.646;23.380;2023-04-06T09:28:58;10.37;;;4.70;;
3967;SDS011;9221;42.646;23.380;2023-04-06T09:31:27;8.33;;;4.17;;
3967;SDS011;9221;42.646;23.380;2023-04-06T09:33:57;12.97;;;5.80;;
3967;SDS011;9221;42.646;23.380;2023-04-06T09:36:33;9.73;;;4.40;;
3967;SDS011;9221;42.646;23.380;2023-04-06T09:39:03;8.50;;;4.57;;
3967;SDS011;9221;42.646;23.380;2023-04-06T09:41:33;12.80;;;4.70;;
3967;SDS011;9221;42.646;23.380;2023-04-06T09:46:33;9.07;;;4.10;;
3967;SDS011;9221;42.646;23.380;2023-04-06T09:49:02;9.80;;;4.57;;
3967;SDS011;9221;42.646;23.380;2023-04-06T09:51:30;8.87;;;4.20;;
3967;SDS011;9221;42.646;23.380;2023-04-06T09:53:56;10.40;;;4.60;;
3967;SDS011;9221;42.646;23.380;2023-04-06T09:56:28;8.20;;;3.93;;
3967;SDS011;9221;42.646;23.380;2023-04-06T09:58:57;8.37;;;3.87;;
3967;SDS011;9221;42.646;23.380;2023-04-06T10:01:28;7.97;;;3.60;;
3967;SDS011;9221;42.646;23.380;2023-04-06T10:06:42;9.27;;;4.30;;
3967;SDS011;9221;42.646;23.380;2023-04-06T10:09:09;14.70;;;4.33;;
3967;SDS011;9221;42.646;23.380;2023-04-06T10:11:36;10.20;;;4.43;;
3967;SDS011;9221;42.646;23.380;2023-04-06T10:14:02;7.50;;;3.67;;
3967;SDS011;9221;42.646;23.380;2023-04-06T10:16:27;7.87;;;4.13;;
3967;SDS011;9221;42.646;23.380;2023-04-06T10:18:56;15.77;;;3.97;;
3967;SDS011;9221;42.646;23.380;2023-04-06T10:21:28;12.20;;;3.97;;
3967;SDS011;9221;42.646;23.380;2023-04-06T10:23:58;6.80;;;3.93;;
3967;SDS011;9221;42.646;23.380;2023-04-06T10:26:25;7.87;;;4.47;;
3967;SDS011;9221;42.646;23.380;2023-04-06T10:28:51;9.73;;;3.90;;
3967;SDS011;9221;42.646;23.380;2023-04-06T10:31:26;9.20;;;4.23;;
3967;SDS011;9221;42.646;23.380;2023-04-06T10:34:00;11.40;;;4.30;;
3967;SDS011;9221;42.646;23.380;2023-04-06T10:36:27;8.97;;;4.00;;
3967;SDS011;9221;42.646;23.380;2023-04-06T10:38:57;8.73;;;4.87;;
3967;SDS011;9221;42.646;23.380;2023-04-06T10:41:31;19.90;;;4.97;;
3967;SDS011;9221;42.646;23.380;2023-04-06T10:43:57;11.93;;;4.00;;
3967;SDS011;9221;42.646;23.380;2023-04-06T10:46:33;12.17;;;5.60;;
3967;SDS011;9221;42.646;23.380;2023-04-06T10:49:11;8.00;;;4.10;;
3967;SDS011;9221;42.646;23.380;2023-04-06T10:51:38;13.73;;;4.97;;
3967;SDS011;9221;42.646;23.380;2023-04-06T10:54:05;8.80;;;4.50;;
3967;SDS011;9221;42.646;23.380;2023-04-06T10:56:31;12.13;;;4.80;;
3967;SDS011;9221;42.646;23.380;2023-04-06T10:58:59;10.90;;;5.17;;
3967;SDS011;9221;42.646;23.380;2023-04-06T11:01:25;8.17;;;4.20;;
3967;SDS011;9221;42.646;23.380;2023-04-06T11:03:53;8.87;;;4.97;;
3967;SDS011;9221;42.646;23.380;2023-04-06T11:06:21;10.83;;;5.53;;
3967;SDS011;9221;42.646;23.380;2023-04-06T11:08:58;9.63;;;4.67;;
3967;SDS011;9221;42.646;23.380;2023-04-06T11:11:25;9.63;;;4.57;;
3967;SDS011;9221;42.646;23.380;2023-04-06T11:13:57;9.67;;;4.60;;
3967;SDS011;9221;42.646;23.380;2023-04-06T11:16:27;8.13;;;5.27;;
3967;SDS011;9221;42.646;23.380;2023-04-06T11:18:59;10.10;;;4.90;;
3967;SDS011;9221;42.646;23.380;2023-04-06T11:24:20;13.13;;;5.10;;
3967;SDS011;9221;42.646;23.380;2023-04-06T11:29:14;11.33;;;4.97;;
3967;SDS011;9221;42.646;23.380;2023-04-06T11:31:42;9.27;;;5.10;;
3967;SDS011;9221;42.646;23.380;2023-04-06T11:34:12;11.33;;;5.73;;
3967;SDS011;9221;42.646;23.380;2023-04-06T11:36:42;12.97;;;5.87;;
3967;SDS011;9221;42.646;23.380;2023-04-06T11:39:09;15.33;;;5.43;;
3967;SDS011;9221;42.646;23.380;2023-04-06T11:41:35;10.33;;;5.20;;
3967;SDS011;9221;42.646;23.380;2023-04-06T11:44:04;10.37;;;5.53;;
3967;SDS011;9221;42.646;23.380;2023-04-06T11:46:30;11.60;;;5.00;;
3967;SDS011;9221;42.646;23.380;2023-04-06T11:48:59;11.73;;;4.97;;
3967;SDS011;9221;42.646;23.380;2023-04-06T11:51:26;10.70;;;5.10;;
3967;SDS011;9221;42.646;23.380;2023-04-06T11:53:52;8.70;;;4.43;;
3967;SDS011;9221;42.646;23.380;2023-04-06T11:56:27;11.00;;;4.97;;
3967;SDS011;9221;42.646;23.380;2023-04-06T11:58:54;10.30;;;5.13;;
3967;SDS011;9221;42.646;23.380;2023-04-06T12:01:24;10.73;;;5.57;;
3967;SDS011;9221;42.646;23.380;2023-04-06T12:03:51;11.90;;;5.80;;
3967;SDS011;9221;42.646;23.380;2023-04-06T12:06:17;15.23;;;5.43;;
3967;SDS011;9221;42.646;23.380;2023-04-06T12:08:43;10.57;;;4.57;;
3967;SDS011;9221;42.646;23.380;2023-04-06T12:11:10;15.20;;;5.30;;
3967;SDS011;9221;42.646;23.380;2023-04-06T12:13:35;14.13;;;6.33;;
3967;SDS011;9221;42.646;23.380;2023-04-06T12:16:01;10.30;;;5.40;;
3967;SDS011;9221;42.646;23.380;2023-04-06T12:18:26;10.23;;;5.03;;
3967;SDS011;9221;42.646;23.380;2023-04-06T12:20:52;8.70;;;4.80;;
3967;SDS011;9221;42.646;23.380;2023-04-06T12:23:19;13.10;;;5.33;;
3967;SDS011;9221;42.646;23.380;2023-04-06T12:25:44;14.37;;;5.37;;
3967;SDS011;9221;42.646;23.380;2023-04-06T12:28:11;18.33;;;5.73;;
3967;SDS011;9221;42.646;23.380;2023-04-06T12:30:36;12.70;;;5.30;;
3967;SDS011;9221;42.646;23.380;2023-04-06T12:33:02;8.10;;;5.27;;
3967;SDS011;9221;42.646;23.380;2023-04-06T12:35:28;14.43;;;5.47;;
3967;SDS011;9221;42.646;23.380;2023-04-06T12:37:53;16.10;;;4.90;;
3967;SDS011;9221;42.646;23.380;2023-04-06T12:40:19;12.70;;;4.80;;
3967;SDS011;9221;42.646;23.380;2023-04-06T12:42:45;10.83;;;5.20;;
3967;SDS011;9221;42.646;23.380;2023-04-06T12:45:11;12.53;;;4.77;;
3967;SDS011;9221;42.646;23.380;2023-04-06T12:47:37;14.37;;;4.50;;
3967;SDS011;9221;42.646;23.380;2023-04-06T12:50:03;9.90;;;4.20;;
3967;SDS011;9221;42.646;23.380;2023-04-06T12:52:30;10.00;;;4.40;;
3967;SDS011;9221;42.646;23.380;2023-04-06T12:54:56;8.83;;;3.90;;
3967;SDS011;9221;42.646;23.380;2023-04-06T12:57:23;11.33;;;4.67;;
3967;SDS011;9221;42.646;23.380;2023-04-06T12:59:49;12.70;;;4.17;;
3967;SDS011;9221;42.646;23.380;2023-04-06T13:02:15;11.80;;;5.00;;
3967;SDS011;9221;42.646;23.380;2023-04-06T13:04:40;14.37;;;4.73;;
3967;SDS011;9221;42.646;23.380;2023-04-06T13:07:06;11.20;;;5.20;;
3967;SDS011;9221;42.646;23.380;2023-04-06T13:09:32;10.27;;;5.20;;
3967;SDS011;9221;42.646;23.380;2023-04-06T13:11:57;13.20;;;5.57;;
3967;SDS011;9221;42.646;23.380;2023-04-06T13:14:22;16.10;;;5.00;;
3967;SDS011;9221;42.646;23.380;2023-04-06T13:16:48;10.50;;;4.47;;
3967;SDS011;9221;42.646;23.380;2023-04-06T13:19:13;17.70;;;6.23;;
3967;SDS011;9221;42.646;23.380;2023-04-06T13:21:39;11.30;;;5.30;;
3967;SDS011;9221;42.646;23.380;2023-04-06T13:24:05;11.83;;;4.47;;
3967;SDS011;9221;42.646;23.380;2023-04-06T13:26:31;12.33;;;4.40;;
3967;SDS011;9221;42.646;23.380;2023-04-06T13:28:56;8.27;;;4.20;;
3967;SDS011;9221;42.646;23.380;2023-04-06T13:31:21;21.67;;;5.80;;
3967;SDS011;9221;42.646;23.380;2023-04-06T13:33:47;11.63;;;6.13;;
3967;SDS011;9221;42.646;23.380;2023-04-06T13:36:12;12.77;;;5.97;;
3967;SDS011;9221;42.646;23.380;2023-04-06T13:38:38;15.77;;;6.33;;
3967;SDS011;9221;42.646;23.380;2023-04-06T13:41:06;14.13;;;5.27;;
3967;SDS011;9221;42.646;23.380;2023-04-06T13:43:31;13.13;;;5.50;;
3967;SDS011;9221;42.646;23.380;2023-04-06T13:45:57;13.80;;;5.70;;
3967;SDS011;9221;42.646;23.380;2023-04-06T13:48:25;12.50;;;4.80;;
3967;SDS011;9221;42.646;23.380;2023-04-06T13:50:51;11.30;;;5.13;;
3967;SDS011;9221;42.646;23.380;2023-04-06T13:53:16;10.90;;;5.30;;
3967;SDS011;9221;42.646;23.380;2023-04-06T13:55:42;13.57;;;4.90;;
3967;SDS011;9221;42.646;23.380;2023-04-06T13:58:07;13.07;;;4.37;;
3967;SDS011;9221;42.646;23.380;2023-04-06T14:00:32;12.57;;;4.40;;
3967;SDS011;9221;42.646;23.380;2023-04-06T14:02:58;13.50;;;4.93;;
3967;SDS011;9221;42.646;23.380;2023-04-06T14:05:23;9.10;;;4.40;;
3967;SDS011;9221;42.646;23.380;2023-04-06T14:07:49;9.57;;;4.17;;
3967;SDS011;9221;42.646;23.380;2023-04-06T14:10:15;11.40;;;4.13;;
3967;SDS011;9221;42.646;23.380;2023-04-06T14:12:41;11.80;;;5.10;;
3967;SDS011;9221;42.646;23.380;2023-04-06T14:15:08;9.47;;;4.70;;
3967;SDS011;9221;42.646;23.380;2023-04-06T14:17:34;13.70;;;5.37;;
3967;SDS011;9221;42.646;23.380;2023-04-06T14:19:59;10.70;;;4.40;;
3967;SDS011;9221;42.646;23.380;2023-04-06T14:22:25;9.73;;;4.43;;
3967;SDS011;9221;42.646;23.380;2023-04-06T14:24:51;9.37;;;4.00;;
3967;SDS011;9221;42.646;23.380;2023-04-06T14:27:16;7.27;;;3.90;;
3967;SDS011;9221;42.646;23.380;2023-04-06T14:29:41;8.20;;;4.73;;
3967;SDS011;9221;42.646;23.380;2023-04-06T14:32:07;9.70;;;4.53;;
3967;SDS011;9221;42.646;23.380;2023-04-06T14:34:32;14.37;;;4.97;;
3967;SDS011;9221;42.646;23.380;2023-04-06T14:36:57;9.33;;;4.33;;
3967;SDS011;9221;42.646;23.380;2023-04-06T14:39:25;14.23;;;4.50;;
3967;SDS011;9221;42.646;23.380;2023-04-06T14:41:50;12.97;;;4.73;;
3967;SDS011;9221;42.646;23.380;2023-04-06T14:44:16;16.03;;;5.10;;
3967;SDS011;9221;42.646;23.380;2023-04-06T14:46:41;14.47;;;5.20;;
3967;SDS011;9221;42.646;23.380;2023-04-06T14:49:07;23.63;;;5.43;;
3967;SDS011;9221;42.646;23.380;2023-04-06T14:51:33;12.30;;;5.10;;
3967;SDS011;9221;42.646;23.380;2023-04-06T14:54:00;13.37;;;5.23;;
3967;SDS011;9221;42.646;23.380;2023-04-06T14:56:27;15.40;;;6.43;;